Time;durP1;ratioP1;P1;durP2;ratioP2;P2;SDS_P1;SDS_P2;PMS_P1;PMS_P2;Temp;Humidity;BMP_temperature;BMP_pressure;BME280_temperature;BME280_humidity;BME280_pressure;Samples;Min_cycle;Max_cycle;Signal;HPM_P1;HPM_P2
2021/01/19 00:00:54;;;;;;;20.08;10.35;;;;;;;;;;5065614;28;20125;-49
2021/01/19 00:03:20;;;;;;;20.85;10.07;;;;;;;;;;5066365;28;20568;-47
2021/01/19 00:05:46;;;;;;;21.45;9.98;;;;;;;;;;5064683;28;20111;-46
2021/01/19 00:08:12;;;;;;;18.45;9.73;;;;;;;;;;5067211;28;20025;-46
2021/01/19 00:10:38;;;;;;;19.17;9.32;;;;;;;;;;5064105;28;20031;-48
2021/01/19 00:13:04;;;;;;;19.33;9.68;;;;;;;;;;5066891;28;20029;-48
2021/01/19 00:15:30;;;;;;;17.42;8.70;;;;;;;;;;5066269;28;20028;-48
2021/01/19 00:17:57;;;;;;;20.05;9.98;;;;;;;;;;5066401;28;20078;-49
2021/01/19 00:20:23;;;;;;;19.08;9.88;;;;;;;;;;5066031;28;20029;-47
2021/01/19 00:22:49;;;;;;;18.20;9.57;;;;;;;;;;5065988;28;20025;-47
2021/01/19 00:25:15;;;;;;;22.00;10.23;;;;;;;;;;5067791;28;20093;-47
2021/01/19 00:27:41;;;;;;;21.15;9.90;;;;;;;;;;5066944;28;20020;-47
2021/01/19 00:30:07;;;;;;;17.42;8.95;;;;;;;;;;5067026;28;20082;-48
2021/01/19 00:32:33;;;;;;;18.42;9.60;;;;;;;;;;5066332;28;20028;-48
2021/01/19 00:34:59;;;;;;;18.25;9.30;;;;;;;;;;5066683;28;20021;-49
2021/01/19 00:37:25;;;;;;;19.25;9.55;;;;;;;;;;5066526;28;20452;-49
2021/01/19 00:39:51;;;;;;;17.15;9.40;;;;;;;;;;5066742;28;20029;-47
2021/01/19 00:42:18;;;;;;;17.73;9.05;;;;;;;;;;5066096;28;20024;-48
2021/01/19 00:44:44;;;;;;;19.95;9.70;;;;;;;;;;5066788;28;20035;-47
2021/01/19 00:47:10;;;;;;;16.05;8.57;;;;;;;;;;5066632;28;20029;-48
2021/01/19 00:49:37;;;;;;;17.38;8.93;;;;;;;;;;5065427;28;20032;-49
2021/01/19 00:52:03;;;;;;;16.80;8.98;;;;;;;;;;5066585;28;20032;-49
2021/01/19 00:54:30;;;;;;;17.13;8.35;;;;;;;;;;5066711;28;20485;-49
2021/01/19 00:56:56;;;;;;;16.20;8.55;;;;;;;;;;5066145;28;20020;-49
2021/01/19 00:59:22;;;;;;;16.33;8.45;;;;;;;;;;5065908;28;20078;-49
2021/01/19 01:01:49;;;;;;;16.23;8.57;;;;;;;;;;5065978;28;20024;-49
2021/01/19 01:04:15;;;;;;;16.33;8.25;;;;;;;;;;5066921;28;20036;-47
2021/01/19 01:06:41;;;;;;;17.38;8.40;;;;;;;;;;5066149;28;20128;-48
2021/01/19 01:09:08;;;;;;;17.00;8.48;;;;;;;;;;5066628;28;20652;-48
2021/01/19 01:11:38;;;;;;;17.65;8.68;;;;;;;;;;5065995;28;20100;-50
2021/01/19 01:14:05;;;;;;;17.75;8.65;;;;;;;;;;5066030;28;20021;-48
2021/01/19 01:16:31;;;;;;;21.27;9.40;;;;;;;;;;5066156;28;20394;-50
2021/01/19 01:18:57;;;;;;;18.17;9.07;;;;;;;;;;5065989;28;20029;-47
2021/01/19 01:21:23;;;;;;;16.92;8.38;;;;;;;;;;5047696;28;20027;-47
2021/01/19 01:23:49;;;;;;;18.58;8.77;;;;;;;;;;5064752;28;20107;-49
2021/01/19 01:26:19;;;;;;;18.98;9.38;;;;;;;;;;5066559;28;20146;-47
2021/01/19 01:28:45;;;;;;;17.30;8.85;;;;;;;;;;5066106;28;20024;-51
2021/01/19 01:31:11;;;;;;;15.70;8.27;;;;;;;;;;5065506;28;20103;-48
2021/01/19 01:33:38;;;;;;;17.77;9.27;;;;;;;;;;5065400;28;20024;-50
2021/01/19 01:36:04;;;;;;;17.65;8.95;;;;;;;;;;5065523;28;20546;-49
2021/01/19 01:38:30;;;;;;;17.77;9.02;;;;;;;;;;5064995;28;20032;-49
2021/01/19 01:40:57;;;;;;;18.65;9.13;;;;;;;;;;5064401;28;20400;-51
2021/01/19 01:43:23;;;;;;;17.00;8.88;;;;;;;;;;5064581;28;20276;-49
2021/01/19 01:45:49;;;;;;;16.25;8.05;;;;;;;;;;5064557;28;20028;-49
2021/01/19 01:48:15;;;;;;;16.17;8.40;;;;;;;;;;5064475;28;20078;-49
2021/01/19 01:50:41;;;;;;;15.05;7.93;;;;;;;;;;5064517;28;20021;-48
2021/01/19 01:53:08;;;;;;;15.23;7.95;;;;;;;;;;5064575;28;20033;-49
2021/01/19 01:55:35;;;;;;;15.35;8.10;;;;;;;;;;5064299;28;20410;-49
2021/01/19 01:58:01;;;;;;;16.48;9.00;;;;;;;;;;5064163;28;20097;-48
2021/01/19 02:00:27;;;;;;;21.95;10.70;;;;;;;;;;5064198;28;20070;-47
2021/01/19 02:02:55;;;;;;;20.10;10.25;;;;;;;;;;5063998;28;20032;-49
2021/01/19 02:05:21;;;;;;;16.42;8.68;;;;;;;;;;5046409;28;20048;-50
2021/01/19 02:07:47;;;;;;;18.92;9.52;;;;;;;;;;5064358;28;20029;-47
2021/01/19 02:10:13;;;;;;;20.73;9.80;;;;;;;;;;5062688;28;20104;-48
2021/01/19 02:12:53;;;;;;;19.60;9.68;;;;;;;;;;5063680;28;20032;-47
2021/01/19 02:15:27;;;;;;;17.65;8.90;;;;;;;;;;5064070;28;20066;-47
2021/01/19 02:18:11;;;;;;;18.17;9.48;;;;;;;;;;5046389;28;20028;-48
2021/01/19 02:20:43;;;;;;;16.80;9.20;;;;;;;;;;5063075;28;20504;-47
2021/01/19 02:23:29;;;;;;;17.50;8.43;;;;;;;;;;5063885;28;20398;-50
2021/01/19 02:25:58;;;;;;;17.27;9.38;;;;;;;;;;5064711;28;20024;-48
2021/01/19 02:28:43;;;;;;;17.27;8.75;;;;;;;;;;5064870;28;20056;-50
2021/01/19 02:31:22;;;;;;;17.13;8.90;;;;;;;;;;5063889;28;20059;-48
2021/01/19 02:33:54;;;;;;;18.45;9.75;;;;;;;;;;5063658;28;20101;-47
2021/01/19 02:36:40;;;;;;;17.42;8.98;;;;;;;;;;5064083;28;20024;-47
2021/01/19 02:39:06;;;;;;;19.05;9.68;;;;;;;;;;5041404;28;643812;-47
2021/01/19 02:41:39;;;;;;;17.08;8.80;;;;;;;;;;5045734;28;20033;-51
2021/01/19 02:44:26;;;;;;;18.90;9.35;;;;;;;;;;5064700;28;20063;-49
2021/01/19 02:46:56;;;;;;;19.25;9.45;;;;;;;;;;5064855;28;20108;-48
2021/01/19 02:49:23;;;;;;;15.60;8.35;;;;;;;;;;5065170;28;20052;-49
2021/01/19 02:51:50;;;;;;;15.70;8.80;;;;;;;;;;5064103;28;20027;-49
2021/01/19 02:54:17;;;;;;;16.80;9.48;;;;;;;;;;5064565;28;20028;-48
2021/01/19 02:56:49;;;;;;;18.65;9.32;;;;;;;;;;5064511;28;20023;-47
2021/01/19 02:59:17;;;;;;;18.98;9.18;;;;;;;;;;5063087;28;20525;-49
2021/01/19 03:01:46;;;;;;;16.85;7.93;;;;;;;;;;5064243;28;20371;-49
2021/01/19 03:04:13;;;;;;;19.42;9.32;;;;;;;;;;5064445;28;20552;-47
2021/01/19 03:06:42;;;;;;;17.23;8.98;;;;;;;;;;5064102;28;20108;-47
2021/01/19 03:09:10;;;;;;;17.45;8.90;;;;;;;;;;5064273;28;20064;-46
2021/01/19 03:11:37;;;;;;;17.00;8.18;;;;;;;;;;5063855;28;20028;-46
2021/01/19 03:14:04;;;;;;;14.68;8.15;;;;;;;;;;5064514;28;20036;-48
2021/01/19 03:16:30;;;;;;;14.32;7.72;;;;;;;;;;5064301;28;20040;-47
2021/01/19 03:18:56;;;;;;;16.60;7.90;;;;;;;;;;5064184;28;20070;-47
2021/01/19 03:21:22;;;;;;;18.08;9.27;;;;;;;;;;5063650;28;20548;-49
2021/01/19 03:23:49;;;;;;;12.98;7.13;;;;;;;;;;5064127;28;20028;-47
2021/01/19 03:26:15;;;;;;;15.15;7.25;;;;;;;;;;5064412;28;20028;-49
2021/01/19 03:28:42;;;;;;;15.98;7.90;;;;;;;;;;5064125;28;20047;-48
2021/01/19 03:31:08;;;;;;;15.02;7.75;;;;;;;;;;5063752;28;20075;-47
2021/01/19 03:33:34;;;;;;;14.90;7.65;;;;;;;;;;5063895;28;20399;-48
2021/01/19 03:36:00;;;;;;;14.23;6.95;;;;;;;;;;5064206;28;20040;-48
2021/01/19 03:38:27;;;;;;;14.85;7.70;;;;;;;;;;5046159;28;20032;-47
2021/01/19 03:40:53;;;;;;;15.38;7.22;;;;;;;;;;5064365;28;20056;-47
2021/01/19 03:43:20;;;;;;;14.85;7.60;;;;;;;;;;5063977;28;20025;-49
2021/01/19 03:45:46;;;;;;;13.98;7.32;;;;;;;;;;5063739;28;20056;-46
2021/01/19 03:48:13;;;;;;;12.20;6.70;;;;;;;;;;5063918;28;20025;-48
2021/01/19 03:50:40;;;;;;;13.35;6.95;;;;;;;;;;5063439;28;20055;-47
2021/01/19 03:53:07;;;;;;;15.35;7.15;;;;;;;;;;5063916;28;20044;-49
2021/01/19 03:55:34;;;;;;;14.80;7.55;;;;;;;;;;5063326;28;20567;-50
2021/01/19 03:58:00;;;;;;;16.17;7.70;;;;;;;;;;5065195;28;20055;-53
2021/01/19 04:00:26;;;;;;;14.77;7.35;;;;;;;;;;5065466;28;20790;-51
2021/01/19 04:02:52;;;;;;;14.07;7.03;;;;;;;;;;5054319;28;20024;-49
2021/01/19 04:05:18;;;;;;;17.50;8.38;;;;;;;;;;5064406;28;20032;-51
2021/01/19 04:07:44;;;;;;;14.05;7.85;;;;;;;;;;5064212;28;20514;-50
2021/01/19 04:10:11;;;;;;;13.65;6.82;;;;;;;;;;5064941;28;20061;-50
2021/01/19 04:12:38;;;;;;;13.32;6.85;;;;;;;;;;5068408;28;20078;-50
2021/01/19 04:15:05;;;;;;;16.60;8.10;;;;;;;;;;5069125;28;20481;-50
2021/01/19 04:17:31;;;;;;;16.17;7.43;;;;;;;;;;5068556;28;20028;-51
2021/01/19 04:19:57;;;;;;;15.45;7.32;;;;;;;;;;5068088;28;20520;-49
2021/01/19 04:22:24;;;;;;;14.60;6.85;;;;;;;;;;5069142;28;20464;-50
2021/01/19 04:24:51;;;;;;;15.95;7.10;;;;;;;;;;5067073;28;20056;-50
2021/01/19 04:27:17;;;;;;;13.38;7.22;;;;;;;;;;5066822;28;20043;-47
2021/01/19 04:29:43;;;;;;;13.40;7.03;;;;;;;;;;5066692;28;20040;-49
2021/01/19 04:32:09;;;;;;;12.07;6.30;;;;;;;;;;5066516;28;20028;-48
2021/01/19 04:34:35;;;;;;;13.85;6.40;;;;;;;;;;5066882;28;20025;-48
2021/01/19 04:37:01;;;;;;;14.55;7.18;;;;;;;;;;5066682;28;20104;-48
2021/01/19 04:39:28;;;;;;;13.38;6.68;;;;;;;;;;5065867;28;20553;-48
2021/01/19 04:41:54;;;;;;;12.98;6.38;;;;;;;;;;5067286;28;20029;-49
2021/01/19 04:44:20;;;;;;;14.48;7.10;;;;;;;;;;5066781;28;20502;-51
2021/01/19 04:46:47;;;;;;;15.48;7.45;;;;;;;;;;5054968;28;20032;-48
2021/01/19 04:49:13;;;;;;;13.98;7.47;;;;;;;;;;5066733;28;20028;-49
2021/01/19 04:51:39;;;;;;;13.90;7.30;;;;;;;;;;5066338;28;20025;-48
2021/01/19 04:54:06;;;;;;;12.40;6.95;;;;;;;;;;5066768;28;20534;-47
2021/01/19 04:56:33;;;;;;;13.63;6.85;;;;;;;;;;5066387;28;20029;-51
2021/01/19 04:58:59;;;;;;;18.75;7.80;;;;;;;;;;5065901;28;20074;-48
2021/01/19 05:01:28;;;;;;;13.73;7.25;;;;;;;;;;5066878;28;20036;-49
2021/01/19 05:03:58;;;;;;;14.82;6.97;;;;;;;;;;5067342;28;20039;-50
2021/01/19 05:06:59;;;;;;;13.88;7.10;;;;;;;;;;5068371;28;20026;-50
2021/01/19 05:09:33;;;;;;;14.30;6.90;;;;;;;;;;5005458;28;20034;-49
2021/01/19 05:12:02;;;;;;;14.25;6.97;;;;;;;;;;5056969;28;20032;-48
2021/01/19 05:14:36;;;;;;;16.60;7.78;;;;;;;;;;5066395;28;20494;-49
2021/01/19 05:17:03;;;;;;;16.63;7.65;;;;;;;;;;5066026;28;20078;-47
2021/01/19 05:19:30;;;;;;;14.38;7.07;;;;;;;;;;5065293;28;20035;-49
2021/01/19 05:21:56;;;;;;;14.02;6.53;;;;;;;;;;5065235;28;20025;-49
2021/01/19 05:24:22;;;;;;;15.38;7.57;;;;;;;;;;5066617;28;20056;-48
2021/01/19 05:26:48;;;;;;;15.20;7.57;;;;;;;;;;5065835;28;20025;-47
2021/01/19 05:29:14;;;;;;;13.93;7.03;;;;;;;;;;5066121;28;20033;-49
2021/01/19 05:31:41;;;;;;;15.60;8.18;;;;;;;;;;5065289;28;20116;-48
2021/01/19 05:34:08;;;;;;;15.45;7.78;;;;;;;;;;5048146;28;20033;-49
2021/01/19 05:36:34;;;;;;;14.80;7.40;;;;;;;;;;5065933;28;20017;-47
2021/01/19 05:39:00;;;;;;;17.33;8.35;;;;;;;;;;5065420;28;20050;-49
2021/01/19 05:41:43;;;;;;;14.73;7.75;;;;;;;;;;5066202;28;20024;-48
2021/01/19 05:44:10;;;;;;;16.08;7.85;;;;;;;;;;5065718;28;20119;-48
2021/01/19 05:46:40;;;;;;;16.98;8.95;;;;;;;;;;5065230;28;20037;-47
2021/01/19 05:49:06;;;;;;;18.00;8.50;;;;;;;;;;5065597;28;20032;-47
2021/01/19 05:51:32;;;;;;;17.00;8.13;;;;;;;;;;5065421;28;20119;-47
2021/01/19 05:53:59;;;;;;;15.82;8.20;;;;;;;;;;5065521;28;20060;-47
2021/01/19 05:56:26;;;;;;;15.35;8.32;;;;;;;;;;5066186;28;20016;-47
2021/01/19 05:58:53;;;;;;;14.98;7.82;;;;;;;;;;5064517;28;20032;-47
2021/01/19 06:01:34;;;;;;;13.63;7.22;;;;;;;;;;5063279;28;20056;-49
2021/01/19 06:04:01;;;;;;;14.63;7.28;;;;;;;;;;5065957;28;20028;-49
2021/01/19 06:06:27;;;;;;;13.82;7.10;;;;;;;;;;5065488;28;20197;-48
2021/01/19 06:09:01;;;;;;;15.65;8.43;;;;;;;;;;5064953;28;20051;-47
2021/01/19 06:11:27;;;;;;;14.38;7.47;;;;;;;;;;5065315;28;20032;-49
2021/01/19 06:13:53;;;;;;;14.32;7.82;;;;;;;;;;5064861;28;20024;-46
2021/01/19 06:16:23;;;;;;;17.38;8.27;;;;;;;;;;5064826;28;20024;-47
2021/01/19 06:18:49;;;;;;;15.00;8.55;;;;;;;;;;5063876;28;20020;-47
2021/01/19 06:21:27;;;;;;;16.27;8.43;;;;;;;;;;5065066;28;20028;-47
2021/01/19 06:23:54;;;;;;;15.80;9.15;;;;;;;;;;5065342;28;20031;-50
2021/01/19 06:26:21;;;;;;;18.20;9.25;;;;;;;;;;5064790;28;20532;-47
2021/01/19 06:28:47;;;;;;;18.05;9.40;;;;;;;;;;5064610;28;20040;-46
2021/01/19 06:31:20;;;;;;;19.27;9.85;;;;;;;;;;5064851;28;20025;-46
2021/01/19 06:33:47;;;;;;;22.35;10.05;;;;;;;;;;5064568;28;20043;-47
2021/01/19 06:36:13;;;;;;;22.10;10.07;;;;;;;;;;5064812;28;20016;-47
2021/01/19 06:38:45;;;;;;;20.25;9.50;;;;;;;;;;5063328;28;20040;-49
2021/01/19 06:41:15;;;;;;;16.02;8.35;;;;;;;;;;5064673;28;20024;-47
2021/01/19 06:43:44;;;;;;;18.73;8.82;;;;;;;;;;5064427;28;20071;-48
2021/01/19 06:46:12;;;;;;;18.27;9.15;;;;;;;;;;5064677;28;20028;-48
2021/01/19 06:48:41;;;;;;;20.15;9.45;;;;;;;;;;5064093;28;20032;-47
2021/01/19 06:51:09;;;;;;;21.90;10.13;;;;;;;;;;5064470;28;20028;-49
2021/01/19 06:54:00;;;;;;;19.45;8.85;;;;;;;;;;5064946;28;20024;-47
2021/01/19 06:56:31;;;;;;;21.50;9.20;;;;;;;;;;5065369;28;20107;-46
2021/01/19 06:58:59;;;;;;;15.32;7.82;;;;;;;;;;5064723;28;20028;-47
2021/01/19 07:01:27;;;;;;;18.85;9.30;;;;;;;;;;5064055;28;20111;-46
2021/01/19 07:04:12;;;;;;;20.10;9.65;;;;;;;;;;5064651;28;20039;-48
2021/01/19 07:07:01;;;;;;;19.15;9.18;;;;;;;;;;5063280;28;20040;-47
2021/01/19 07:09:39;;;;;;;20.75;9.90;;;;;;;;;;5054805;28;20355;-48
2021/01/19 07:12:06;;;;;;;21.90;9.45;;;;;;;;;;5064333;28;20112;-50
2021/01/19 07:14:43;;;;;;;21.08;10.45;;;;;;;;;;5062403;28;20032;-47
2021/01/19 07:17:16;;;;;;;19.40;9.18;;;;;;;;;;5062896;28;20021;-47
2021/01/19 07:19:49;;;;;;;19.83;9.65;;;;;;;;;;5061817;28;20035;-48
2021/01/19 07:22:38;;;;;;;19.77;9.05;;;;;;;;;;5064647;28;20012;-48
2021/01/19 07:25:04;;;;;;;19.95;9.60;;;;;;;;;;5064718;28;20063;-46
2021/01/19 07:27:30;;;;;;;19.65;9.98;;;;;;;;;;5063842;28;20039;-46
2021/01/19 07:29:57;;;;;;;19.95;9.32;;;;;;;;;;5065958;28;20036;-46
2021/01/19 07:32:25;;;;;;;19.50;9.95;;;;;;;;;;5065740;28;20029;-45
2021/01/19 07:34:51;;;;;;;21.67;10.20;;;;;;;;;;5065620;28;20025;-46
2021/01/19 07:37:28;;;;;;;24.10;10.18;;;;;;;;;;5064739;28;20086;-48
2021/01/19 07:39:54;;;;;;;16.75;8.70;;;;;;;;;;5065946;28;20029;-46
2021/01/19 07:42:21;;;;;;;21.60;9.57;;;;;;;;;;5060768;28;20399;-47
2021/01/19 07:45:04;;;;;;;22.02;10.65;;;;;;;;;;5065493;28;20037;-48
2021/01/19 07:47:38;;;;;;;16.92;8.43;;;;;;;;;;5069384;28;20104;-46
2021/01/19 07:50:05;;;;;;;18.95;10.13;;;;;;;;;;5069418;28;20107;-46
2021/01/19 07:52:36;;;;;;;17.15;9.25;;;;;;;;;;5068233;28;20128;-46
2021/01/19 07:55:12;;;;;;;17.17;8.52;;;;;;;;;;5050856;28;20086;-46
2021/01/19 07:57:38;;;;;;;15.68;8.07;;;;;;;;;;5069070;28;20078;-46
2021/01/19 08:00:05;;;;;;;14.68;8.63;;;;;;;;;;5068601;28;20479;-46
2021/01/19 08:02:31;;;;;;;17.60;8.70;;;;;;;;;;5068030;28;20540;-45
2021/01/19 08:05:00;;;;;;;14.63;8.05;;;;;;;;;;5069752;28;20043;-49
2021/01/19 08:07:37;;;;;;;16.25;8.40;;;;;;;;;;5069901;28;20031;-47
2021/01/19 08:10:04;;;;;;;15.18;7.90;;;;;;;;;;5068713;28;20028;-45
2021/01/19 08:12:36;;;;;;;14.73;7.18;;;;;;;;;;5068974;28;20024;-48
2021/01/19 08:15:05;;;;;;;14.77;7.88;;;;;;;;;;5067810;28;20024;-45
2021/01/19 08:17:39;;;;;;;12.77;7.13;;;;;;;;;;5069048;28;20016;-45
2021/01/19 08:20:05;;;;;;;13.55;7.65;;;;;;;;;;5065306;28;20024;-46
2021/01/19 08:22:31;;;;;;;14.05;7.43;;;;;;;;;;5068836;28;20129;-46
2021/01/19 08:25:00;;;;;;;15.20;8.32;;;;;;;;;;5067553;28;20094;-47
2021/01/19 08:27:29;;;;;;;13.65;7.07;;;;;;;;;;5069299;28;20035;-46
2021/01/19 08:29:55;;;;;;;13.98;7.03;;;;;;;;;;5050248;28;20561;-46
2021/01/19 08:32:22;;;;;;;15.30;7.90;;;;;;;;;;5067582;28;20448;-47
2021/01/19 08:34:49;;;;;;;13.93;7.68;;;;;;;;;;5066918;28;20412;-45
2021/01/19 08:37:19;;;;;;;14.77;7.50;;;;;;;;;;5067044;28;20024;-46
2021/01/19 08:39:54;;;;;;;13.82;7.05;;;;;;;;;;5066997;28;20024;-46
2021/01/19 08:42:21;;;;;;;16.17;7.93;;;;;;;;;;5066955;28;20083;-47
2021/01/19 08:44:58;;;;;;;18.10;8.45;;;;;;;;;;5066376;28;20307;-47
2021/01/19 08:47:25;;;;;;;21.98;9.80;;;;;;;;;;5067604;28;20029;-45
2021/01/19 08:49:51;;;;;;;19.33;9.40;;;;;;;;;;5066281;28;20064;-48
2021/01/19 08:52:18;;;;;;;17.52;8.68;;;;;;;;;;5066642;28;20037;-47
2021/01/19 08:54:44;;;;;;;21.52;10.15;;;;;;;;;;5066855;28;20021;-46
2021/01/19 08:57:19;;;;;;;19.10;9.70;;;;;;;;;;5066626;28;20384;-46
2021/01/19 08:59:51;;;;;;;20.30;9.45;;;;;;;;;;5065537;28;20027;-46
2021/01/19 09:02:17;;;;;;;15.95;8.48;;;;;;;;;;5066453;28;20033;-46
2021/01/19 09:04:44;;;;;;;17.88;9.10;;;;;;;;;;5066255;28;20521;-46
2021/01/19 09:07:11;;;;;;;17.02;8.48;;;;;;;;;;5066327;28;20402;-49
2021/01/19 09:09:37;;;;;;;16.63;8.80;;;;;;;;;;5066136;28;20032;-49
2021/01/19 09:12:03;;;;;;;17.63;9.48;;;;;;;;;;5066218;28;20021;-48
2021/01/19 09:14:30;;;;;;;18.05;9.48;;;;;;;;;;5066029;28;20016;-47
2021/01/19 09:16:56;;;;;;;16.55;8.57;;;;;;;;;;5066636;28;20341;-45
2021/01/19 09:19:22;;;;;;;19.15;10.10;;;;;;;;;;5066281;28;20103;-47
2021/01/19 09:21:48;;;;;;;18.17;9.05;;;;;;;;;;5065618;28;20038;-48
2021/01/19 09:24:15;;;;;;;18.85;9.23;;;;;;;;;;5066448;28;20024;-48
2021/01/19 09:26:56;;;;;;;17.52;8.43;;;;;;;;;;5066013;28;20036;-46
2021/01/19 09:29:25;;;;;;;17.75;8.70;;;;;;;;;;5066187;28;20024;-47
2021/01/19 09:31:51;;;;;;;19.05;9.23;;;;;;;;;;5065462;28;20504;-48
2021/01/19 09:34:21;;;;;;;19.27;8.65;;;;;;;;;;5065993;28;20105;-46
2021/01/19 09:36:49;;;;;;;16.70;8.43;;;;;;;;;;5065641;28;20076;-46
2021/01/19 09:39:25;;;;;;;16.67;8.45;;;;;;;;;;5065730;28;20523;-47
2021/01/19 09:41:52;;;;;;;15.70;8.30;;;;;;;;;;5065466;28;20032;-49
2021/01/19 09:44:18;;;;;;;14.98;7.65;;;;;;;;;;5065787;28;20035;-45
2021/01/19 09:46:45;;;;;;;16.70;8.20;;;;;;;;;;5065139;28;20042;-49
2021/01/19 09:49:12;;;;;;;14.98;7.70;;;;;;;;;;5065669;28;20082;-46
2021/01/19 09:51:38;;;;;;;15.40;8.32;;;;;;;;;;5065269;28;20033;-47
2021/01/19 09:54:06;;;;;;;15.30;7.95;;;;;;;;;;5065537;28;20446;-47
2021/01/19 09:56:32;;;;;;;14.75;7.43;;;;;;;;;;5065260;28;20032;-46
2021/01/19 09:59:02;;;;;;;14.73;7.72;;;;;;;;;;5065039;28;20178;-46
2021/01/19 10:01:29;;;;;;;15.23;7.03;;;;;;;;;;5065851;28;20093;-47
2021/01/19 10:03:55;;;;;;;11.88;6.88;;;;;;;;;;5065719;28;20024;-46
2021/01/19 10:06:22;;;;;;;14.40;7.40;;;;;;;;;;5065308;28;20031;-49
2021/01/19 10:08:54;;;;;;;14.02;7.20;;;;;;;;;;5064492;28;20515;-48
2021/01/19 10:11:29;;;;;;;13.57;7.18;;;;;;;;;;5064875;28;20515;-46
2021/01/19 10:13:56;;;;;;;16.38;8.63;;;;;;;;;;5065185;28;20094;-46
2021/01/19 10:16:26;;;;;;;17.45;8.18;;;;;;;;;;5065125;28;20165;-51
2021/01/19 10:18:52;;;;;;;15.52;8.20;;;;;;;;;;5065054;28;20024;-49
2021/01/19 10:21:28;;;;;;;17.00;8.73;;;;;;;;;;5065367;28;20033;-50
2021/01/19 10:23:54;;;;;;;16.10;7.65;;;;;;;;;;5065401;28;20032;-46
2021/01/19 10:26:26;;;;;;;14.48;7.60;;;;;;;;;;5046766;28;20406;-48
2021/01/19 10:28:55;;;;;;;15.55;7.55;;;;;;;;;;5064856;28;20024;-47
2021/01/19 10:31:23;;;;;;;15.40;7.40;;;;;;;;;;5064756;28;20436;-47
2021/01/19 10:33:57;;;;;;;12.52;6.82;;;;;;;;;;5064517;28;20529;-48
2021/01/19 10:36:24;;;;;;;15.30;7.35;;;;;;;;;;5065643;28;20108;-47
2021/01/19 10:38:51;;;;;;;11.32;5.93;;;;;;;;;;5064325;28;20405;-47
2021/01/19 10:41:24;;;;;;;9.63;5.57;;;;;;;;;;5064659;28;20032;-47
2021/01/19 10:43:51;;;;;;;8.23;4.70;;;;;;;;;;5064305;28;20576;-47
2021/01/19 10:46:19;;;;;;;8.98;5.00;;;;;;;;;;5064742;28;20044;-47
2021/01/19 10:48:46;;;;;;;10.10;5.07;;;;;;;;;;5064875;28;20028;-47
2021/01/19 10:51:12;;;;;;;9.15;5.30;;;;;;;;;;5064715;28;20498;-48
2021/01/19 10:53:41;;;;;;;10.20;5.15;;;;;;;;;;5064386;28;20109;-51
2021/01/19 10:56:17;;;;;;;9.82;4.85;;;;;;;;;;5064984;28;20398;-48
2021/01/19 10:58:43;;;;;;;7.45;4.53;;;;;;;;;;5045445;28;20086;-47
2021/01/19 11:01:09;;;;;;;7.95;4.28;;;;;;;;;;5064612;28;20555;-47
2021/01/19 11:03:35;;;;;;;7.63;4.40;;;;;;;;;;5064001;28;20031;-50
2021/01/19 11:06:01;;;;;;;11.07;4.95;;;;;;;;;;5064440;28;20040;-47
2021/01/19 11:08:27;;;;;;;6.55;3.63;;;;;;;;;;5065010;28;20117;-48
2021/01/19 11:10:53;;;;;;;8.13;4.28;;;;;;;;;;5064861;28;20027;-48
2021/01/19 11:13:19;;;;;;;8.32;3.92;;;;;;;;;;5064290;28;20032;-46
2021/01/19 11:15:45;;;;;;;6.07;3.58;;;;;;;;;;5064143;28;20478;-49
2021/01/19 11:18:11;;;;;;;5.72;3.35;;;;;;;;;;5064426;28;20024;-47
2021/01/19 11:20:37;;;;;;;6.22;3.50;;;;;;;;;;5065156;28;20032;-47
2021/01/19 11:23:04;;;;;;;6.07;3.45;;;;;;;;;;5068345;28;20494;-49
2021/01/19 11:25:31;;;;;;;4.47;2.55;;;;;;;;;;5068303;28;20456;-50
2021/01/19 11:27:58;;;;;;;6.30;3.28;;;;;;;;;;5068631;28;20056;-49
2021/01/19 11:30:24;;;;;;;4.05;2.65;;;;;;;;;;5068935;28;20028;-48
2021/01/19 11:32:50;;;;;;;4.25;2.22;;;;;;;;;;5067673;28;20457;-47
2021/01/19 11:35:16;;;;;;;2.97;1.85;;;;;;;;;;5068143;28;20031;-49
2021/01/19 11:37:42;;;;;;;3.97;2.33;;;;;;;;;;5067816;28;20302;-47
2021/01/19 11:40:08;;;;;;;3.90;2.50;;;;;;;;;;5068157;28;20025;-50
2021/01/19 11:42:35;;;;;;;4.25;2.47;;;;;;;;;;5067621;28;20032;-48
2021/01/19 11:45:03;;;;;;;4.97;2.95;;;;;;;;;;5067765;28;20407;-48
2021/01/19 11:47:30;;;;;;;6.82;3.38;;;;;;;;;;5067898;28;20020;-48
2021/01/19 11:49:56;;;;;;;4.65;2.58;;;;;;;;;;5068280;28;20059;-51
2021/01/19 11:52:23;;;;;;;4.80;2.60;;;;;;;;;;5067772;28;20059;-47
2021/01/19 11:54:49;;;;;;;5.35;3.22;;;;;;;;;;5067725;28;20513;-46
2021/01/19 11:57:15;;;;;;;5.20;3.13;;;;;;;;;;5067734;28;20017;-47
2021/01/19 11:59:41;;;;;;;6.38;3.40;;;;;;;;;;5067337;28;20071;-46
2021/01/19 12:02:07;;;;;;;5.32;2.90;;;;;;;;;;5067561;28;20041;-48
2021/01/19 12:04:33;;;;;;;5.60;2.80;;;;;;;;;;5067218;28;20031;-47
2021/01/19 12:07:00;;;;;;;4.85;2.50;;;;;;;;;;5065841;28;20025;-47
2021/01/19 12:09:26;;;;;;;4.28;2.47;;;;;;;;;;5067760;28;20093;-47
2021/01/19 12:11:54;;;;;;;3.92;2.47;;;;;;;;;;5067099;28;20498;-50
2021/01/19 12:14:20;;;;;;;4.43;2.22;;;;;;;;;;5065493;28;20025;-47
2021/01/19 12:16:47;;;;;;;5.47;2.65;;;;;;;;;;5066043;28;20032;-49
2021/01/19 12:19:13;;;;;;;4.32;2.20;;;;;;;;;;5066812;28;20021;-47
2021/01/19 12:21:47;;;;;;;3.88;2.50;;;;;;;;;;5066381;28;20020;-47
2021/01/19 12:24:13;;;;;;;3.83;2.30;;;;;;;;;;5066973;28;20157;-48
2021/01/19 12:26:39;;;;;;;4.13;1.73;;;;;;;;;;5066321;28;20024;-47
2021/01/19 12:29:06;;;;;;;4.93;1.50;;;;;;;;;;5066099;28;20051;-46
2021/01/19 12:31:33;;;;;;;3.53;1.70;;;;;;;;;;5064796;28;20505;-48
2021/01/19 12:33:59;;;;;;;2.38;1.40;;;;;;;;;;5062690;28;20033;-49
2021/01/19 12:36:25;;;;;;;3.20;1.65;;;;;;;;;;5067265;28;20091;-48
2021/01/19 12:38:51;;;;;;;1.17;0.90;;;;;;;;;;5059476;28;20414;-49
2021/01/19 12:41:17;;;;;;;2.00;1.17;;;;;;;;;;5046202;28;20749;-47
2021/01/19 12:43:44;;;;;;;2.45;1.45;;;;;;;;;;5046145;28;20057;-48
2021/01/19 12:46:12;;;;;;;2.25;1.42;;;;;;;;;;5052466;28;20504;-50
2021/01/19 12:48:39;;;;;;;3.78;1.75;;;;;;;;;;5054758;28;20029;-50
2021/01/19 12:51:14;;;;;;;2.05;1.33;;;;;;;;;;5058273;28;20063;-50
2021/01/19 12:53:42;;;;;;;2.45;1.33;;;;;;;;;;5045050;28;20087;-48
2021/01/19 12:56:11;;;;;;;3.33;1.90;;;;;;;;;;5046171;28;20446;-49
2021/01/19 12:58:37;;;;;;;2.85;1.52;;;;;;;;;;5066070;28;20025;-51
2021/01/19 13:01:03;;;;;;;2.38;1.40;;;;;;;;;;5065627;28;20746;-51
2021/01/19 13:03:29;;;;;;;4.25;2.20;;;;;;;;;;5067128;28;20024;-50
2021/01/19 13:05:56;;;;;;;5.60;2.00;;;;;;;;;;5067226;28;20379;-47
2021/01/19 13:08:22;;;;;;;3.75;2.00;;;;;;;;;;5067413;28;20025;-49
2021/01/19 13:10:48;;;;;;;3.22;1.77;;;;;;;;;;5065865;28;20469;-49
2021/01/19 13:13:14;;;;;;;2.55;1.42;;;;;;;;;;5066783;28;20031;-47
2021/01/19 13:15:40;;;;;;;2.35;1.35;;;;;;;;;;5064572;28;20056;-47
2021/01/19 13:18:06;;;;;;;1.75;1.10;;;;;;;;;;5066242;28;20475;-48
2021/01/19 13:20:32;;;;;;;1.92;1.38;;;;;;;;;;5066355;28;20521;-48
2021/01/19 13:22:58;;;;;;;2.28;1.40;;;;;;;;;;5066028;28;20426;-51
2021/01/19 13:25:24;;;;;;;1.70;1.00;;;;;;;;;;5066158;28;20429;-49
2021/01/19 13:27:50;;;;;;;1.33;1.10;;;;;;;;;;5065141;28;20031;-48
2021/01/19 13:30:17;;;;;;;2.45;1.27;;;;;;;;;;5064102;28;20031;-48
2021/01/19 13:32:43;;;;;;;1.15;0.95;;;;;;;;;;5065469;28;20032;-51
2021/01/19 13:35:09;;;;;;;2.10;0.95;;;;;;;;;;5066479;28;20012;-49
2021/01/19 13:37:35;;;;;;;2.00;1.10;;;;;;;;;;5062551;28;20021;-52
2021/01/19 13:40:01;;;;;;;2.47;1.00;;;;;;;;;;5066826;28;20510;-49
2021/01/19 13:42:27;;;;;;;1.80;1.05;;;;;;;;;;5066485;28;20604;-49
2021/01/19 13:44:53;;;;;;;1.30;0.90;;;;;;;;;;5065594;28;20025;-51
2021/01/19 13:47:19;;;;;;;2.63;1.52;;;;;;;;;;5065737;28;20032;-47
2021/01/19 13:49:45;;;;;;;1.50;1.00;;;;;;;;;;5065698;28;20536;-51
2021/01/19 13:52:11;;;;;;;1.30;1.10;;;;;;;;;;5066100;28;20028;-48
2021/01/19 13:54:38;;;;;;;2.03;1.00;;;;;;;;;;5065495;28;20059;-48
2021/01/19 13:57:04;;;;;;;1.58;0.88;;;;;;;;;;5064739;28;20021;-50
2021/01/19 13:59:30;;;;;;;1.52;1.20;;;;;;;;;;5065664;28;20036;-50
2021/01/19 14:01:56;;;;;;;1.98;1.30;;;;;;;;;;5064619;28;20031;-48
2021/01/19 14:04:22;;;;;;;1.75;1.13;;;;;;;;;;5066295;28;20532;-49
2021/01/19 14:06:48;;;;;;;3.60;1.48;;;;;;;;;;5065593;28;20038;-47
2021/01/19 14:09:14;;;;;;;1.63;1.10;;;;;;;;;;5064990;28;20029;-49
2021/01/19 14:11:40;;;;;;;2.58;1.25;;;;;;;;;;5065843;28;20060;-46
2021/01/19 14:14:15;;;;;;;1.50;0.80;;;;;;;;;;5065724;28;20036;-50
2021/01/19 14:16:41;;;;;;;1.77;1.10;;;;;;;;;;5065984;28;20035;-46
2021/01/19 14:19:07;;;;;;;1.40;0.90;;;;;;;;;;5066373;28;20056;-49
2021/01/19 14:21:33;;;;;;;1.55;0.77;;;;;;;;;;5066244;28;20029;-50
2021/01/19 14:23:59;;;;;;;1.00;0.80;;;;;;;;;;5065354;28;20108;-49
2021/01/19 14:26:27;;;;;;;2.00;0.80;;;;;;;;;;5066767;28;20082;-48
2021/01/19 14:28:53;;;;;;;2.00;1.33;;;;;;;;;;5065647;28;20600;-48
2021/01/19 14:31:19;;;;;;;1.90;1.00;;;;;;;;;;5065527;28;20051;-49
2021/01/19 14:33:45;;;;;;;3.08;1.13;;;;;;;;;;5064446;28;20052;-49
2021/01/19 14:36:16;;;;;;;2.28;1.27;;;;;;;;;;5065617;28;20071;-48
2021/01/19 14:38:42;;;;;;;2.60;1.40;;;;;;;;;;5065496;28;20055;-49